createdAt,value
2023-03-06T00:00:27.090Z,7.00
2023-03-06T00:03:14.645Z,5.80
2023-03-06T00:05:42.762Z,5.20
2023-03-06T00:08:11.411Z,6.60
2023-03-06T00:10:40.342Z,5.80
2023-03-06T00:13:15.704Z,6.10
2023-03-06T00:18:11.632Z,5.90
2023-03-06T00:20:41.511Z,5.80
2023-03-06T00:23:11.097Z,6.00
2023-03-06T00:25:43.183Z,5.80
2023-03-06T00:28:12.502Z,6.40
2023-03-06T00:30:40.558Z,6.20
2023-03-06T00:33:10.254Z,6.80
2023-03-06T00:35:42.157Z,6.20
2023-03-06T00:38:12.520Z,5.90
2023-03-06T00:40:40.629Z,5.30
2023-03-06T00:43:08.587Z,6.30
2023-03-06T00:45:36.723Z,6.20
2023-03-06T00:48:06.394Z,6.50
2023-03-06T00:50:35.402Z,6.60
2023-03-06T00:53:03.459Z,5.80
2023-03-06T00:55:33.507Z,6.80
2023-03-06T00:58:01.883Z,7.50
2023-03-06T01:00:29.925Z,7.50
2023-03-06T01:02:57.939Z,8.00
2023-03-06T01:05:26.676Z,9.00
2023-03-06T01:07:54.887Z,7.50
2023-03-06T01:10:22.988Z,5.90
2023-03-06T01:12:51.419Z,8.60
2023-03-06T01:15:20.299Z,7.70
2023-03-06T01:17:52.061Z,6.40
2023-03-06T01:20:20.566Z,6.80
2023-03-06T01:22:48.560Z,6.40
2023-03-06T01:25:16.700Z,6.90
2023-03-06T01:27:44.677Z,5.70
2023-03-06T01:30:13.317Z,6.10
2023-03-06T01:32:41.492Z,5.70
2023-03-06T01:35:10.121Z,5.90
2023-03-06T01:37:39.058Z,6.00
2023-03-06T01:40:11.568Z,6.20
2023-03-06T01:42:39.695Z,6.10
2023-03-06T01:45:13.880Z,6.40
2023-03-06T01:47:42.794Z,6.30
2023-03-06T01:50:13.062Z,5.30
2023-03-06T01:52:53.167Z,6.40
2023-03-06T01:55:28.211Z,6.20
2023-03-06T01:57:59.303Z,6.30
2023-03-06T02:00:29.668Z,5.80
2023-03-06T02:03:09.114Z,6.60
2023-03-06T02:05:41.266Z,5.70
2023-03-06T02:08:12.875Z,5.60
2023-03-06T02:11:22.446Z,6.00
2023-03-06T02:13:52.601Z,6.30
2023-03-06T02:16:26.512Z,5.50
2023-03-06T02:18:54.771Z,6.20
2023-03-06T02:21:27.034Z,6.10
2023-03-06T02:24:15.483Z,6.30
2023-03-06T02:26:45.523Z,6.80
2023-03-06T02:29:20.115Z,5.60
2023-03-06T02:31:48.253Z,6.10
2023-03-06T02:34:16.144Z,6.10
2023-03-06T02:36:59.547Z,5.60
2023-03-06T02:39:31.492Z,5.70
2023-03-06T02:41:59.801Z,5.10
2023-03-06T02:44:30.607Z,5.20
2023-03-06T02:46:59.777Z,5.90
2023-03-06T02:49:28.809Z,6.00
2023-03-06T02:51:56.986Z,6.10
2023-03-06T02:54:24.887Z,6.50
2023-03-06T02:56:52.864Z,7.70
2023-03-06T02:59:20.832Z,7.60
2023-03-06T03:01:49.312Z,7.70
2023-03-06T03:04:17.341Z,7.50
2023-03-06T03:06:45.372Z,8.50
2023-03-06T03:09:14.120Z,9.30
2023-03-06T03:11:42.068Z,8.70
2023-03-06T03:14:11.247Z,6.80
2023-03-06T03:16:39.383Z,8.40
2023-03-06T03:19:07.552Z,8.30
2023-03-06T03:21:35.782Z,7.50
2023-03-06T03:24:03.938Z,8.10
2023-03-06T03:26:31.991Z,7.90
2023-03-06T03:29:12.980Z,7.00
2023-03-06T03:31:41.000Z,6.50
2023-03-06T03:34:09.051Z,6.70
2023-03-06T03:36:39.495Z,6.90
2023-03-06T03:39:08.653Z,7.20
2023-03-06T03:41:37.390Z,7.10
2023-03-06T03:44:07.971Z,6.80
2023-03-06T03:46:36.612Z,6.70
2023-03-06T03:49:06.375Z,7.00
2023-03-06T03:51:34.394Z,7.30
2023-03-06T03:54:02.760Z,7.20
2023-03-06T03:56:36.184Z,7.20
2023-03-06T03:59:09.281Z,6.70
2023-03-06T04:01:43.180Z,7.00
2023-03-06T04:04:12.037Z,6.50
2023-03-06T04:06:42.732Z,7.00
2023-03-06T04:09:11.143Z,6.90
2023-03-06T04:11:40.422Z,7.60
2023-03-06T04:14:10.054Z,7.10
2023-03-06T04:16:39.850Z,7.90
2023-03-06T04:19:08.531Z,7.20
2023-03-06T04:21:36.923Z,7.50
2023-03-06T04:24:07.410Z,6.50
2023-03-06T04:26:37.010Z,8.00
2023-03-06T04:29:05.904Z,8.50
2023-03-06T04:31:34.663Z,7.00
2023-03-06T04:34:02.878Z,7.20
2023-03-06T04:36:34.008Z,7.10
2023-03-06T04:39:14.731Z,7.80
2023-03-06T04:41:44.265Z,7.90
2023-03-06T04:44:13.221Z,8.10
2023-03-06T04:46:42.568Z,7.30
2023-03-06T04:49:10.955Z,8.70
2023-03-06T04:51:38.972Z,7.40
2023-03-06T04:54:07.005Z,8.10
2023-03-06T04:56:35.305Z,8.90
2023-03-06T04:59:05.186Z,9.60
2023-03-06T05:01:33.243Z,9.20
2023-03-06T05:04:01.273Z,9.60
2023-03-06T05:06:31.088Z,8.80
2023-03-06T05:08:59.052Z,9.20
2023-03-06T05:11:27.386Z,9.60
2023-03-06T05:14:16.803Z,9.70
2023-03-06T05:16:44.967Z,10.30
2023-03-06T05:19:13.161Z,9.40
2023-03-06T05:21:41.114Z,11.00
2023-03-06T05:24:11.355Z,11.50
2023-03-06T05:26:39.579Z,10.40
2023-03-06T05:29:07.698Z,12.50
2023-03-06T05:31:35.798Z,12.40
2023-03-06T05:34:04.002Z,11.80
2023-03-06T05:36:52.548Z,11.80
2023-03-06T05:39:21.507Z,10.60
2023-03-06T05:41:50.416Z,11.80
2023-03-06T05:44:19.278Z,11.80
2023-03-06T05:46:49.865Z,12.10
2023-03-06T05:49:38.160Z,12.80
2023-03-06T05:52:07.314Z,11.40
2023-03-06T05:54:37.481Z,11.90
2023-03-06T05:57:06.164Z,11.60
2023-03-06T05:59:36.172Z,12.40
2023-03-06T06:02:07.042Z,13.30
2023-03-06T06:04:35.376Z,13.50
2023-03-06T06:07:17.283Z,9.40
2023-03-06T06:09:47.902Z,12.20
2023-03-06T06:12:16.109Z,12.50
2023-03-06T06:14:44.821Z,11.40
2023-03-06T06:17:13.035Z,13.10
2023-03-06T06:19:41.096Z,12.40
2023-03-06T06:22:09.714Z,12.30
2023-03-06T06:24:39.084Z,11.60
2023-03-06T06:27:07.509Z,12.90
2023-03-06T06:29:36.112Z,12.60
2023-03-06T06:32:05.375Z,13.30
2023-03-06T06:34:34.342Z,11.80
2023-03-06T06:37:04.861Z,12.20
2023-03-06T06:39:32.908Z,11.90
2023-03-06T06:42:28.199Z,13.10
2023-03-06T06:44:50.420Z,12.00
2023-03-06T06:47:23.089Z,11.90
2023-03-06T06:49:54.443Z,14.30
2023-03-06T06:52:23.758Z,11.90
2023-03-06T06:54:53.544Z,11.00
2023-03-06T06:57:22.138Z,11.80
2023-03-06T06:59:53.389Z,12.50
2023-03-06T07:02:22.165Z,11.70
2023-03-06T07:05:03.449Z,11.30
2023-03-06T07:07:39.846Z,14.70
2023-03-06T07:10:13.773Z,12.60
2023-03-06T07:12:42.474Z,13.50
2023-03-06T07:15:15.344Z,11.50
2023-03-06T07:17:44.221Z,20.70
2023-03-06T07:20:13.243Z,9.70
2023-03-06T07:22:50.764Z,11.30
2023-03-06T07:25:20.290Z,10.90
2023-03-06T07:27:53.920Z,13.20
2023-03-06T07:30:25.328Z,10.00
2023-03-06T07:32:56.269Z,15.00
2023-03-06T07:35:27.594Z,11.60
2023-03-06T07:38:06.599Z,11.60
2023-03-06T07:40:36.769Z,11.50
2023-03-06T07:43:18.798Z,11.30
2023-03-06T07:45:58.666Z,10.40
2023-03-06T07:48:27.737Z,9.50
2023-03-06T07:51:03.387Z,10.70
2023-03-06T07:53:35.945Z,10.50
2023-03-06T07:56:11.332Z,11.70
2023-03-06T07:58:45.744Z,10.70
2023-03-06T08:01:20.176Z,11.10
2023-03-06T08:03:51.733Z,12.00
2023-03-06T08:06:26.048Z,12.00
2023-03-06T08:08:55.920Z,11.70
2023-03-06T08:11:28.678Z,11.00
2023-03-06T08:14:08.510Z,10.30
2023-03-06T08:16:37.124Z,11.40
2023-03-06T08:19:06.320Z,9.70
2023-03-06T08:21:35.723Z,9.20
2023-03-06T08:24:07.423Z,9.50
2023-03-06T08:26:35.841Z,8.90
2023-03-06T08:29:06.233Z,8.20
2023-03-06T08:31:42.862Z,9.20
2023-03-06T08:34:15.495Z,10.80
2023-03-06T08:36:44.218Z,17.80
2023-03-06T08:39:14.158Z,9.40
2023-03-06T08:41:45.072Z,14.60
2023-03-06T08:46:49.696Z,8.00
2023-03-06T08:49:18.025Z,9.50
2023-03-06T08:51:52.847Z,8.50
2023-03-06T08:54:28.045Z,8.50
2023-03-06T08:56:57.294Z,9.80
2023-03-06T08:59:25.654Z,9.00
2023-03-06T09:01:54.191Z,7.70
2023-03-06T09:04:24.877Z,9.30
2023-03-06T09:06:55.470Z,8.50
2023-03-06T09:09:24.306Z,10.70
2023-03-06T09:11:56.701Z,9.60
2023-03-06T09:14:33.168Z,7.60
2023-03-06T09:17:11.632Z,7.40
2023-03-06T09:19:40.731Z,7.20
2023-03-06T09:22:12.438Z,13.10
2023-03-06T09:24:43.399Z,8.40
2023-03-06T09:27:12.203Z,7.80
2023-03-06T09:29:43.112Z,6.50
2023-03-06T09:32:13.490Z,7.10
2023-03-06T09:34:42.121Z,7.10
2023-03-06T09:37:11.591Z,7.70
2023-03-06T09:39:47.183Z,8.80
2023-03-06T09:42:25.239Z,11.70
2023-03-06T09:45:01.737Z,7.20
2023-03-06T09:48:08.098Z,7.90
2023-03-06T09:50:43.103Z,9.00
2023-03-06T09:53:50.427Z,8.90
2023-03-06T09:59:00.993Z,15.30
2023-03-06T10:01:35.189Z,7.90
2023-03-06T10:04:23.233Z,6.30
2023-03-06T10:07:24.118Z,7.90
2023-03-06T10:10:00.809Z,6.60
2023-03-06T10:12:38.846Z,6.60
2023-03-06T10:15:28.038Z,5.80
2023-03-06T10:17:57.248Z,5.10
2023-03-06T10:20:52.491Z,7.10
2023-03-06T10:23:43.306Z,6.50
2023-03-06T10:26:22.931Z,6.00
2023-03-06T10:28:59.889Z,5.00
2023-03-06T10:31:28.963Z,4.50
2023-03-06T10:34:11.173Z,5.30
2023-03-06T10:36:39.799Z,5.40
2023-03-06T10:39:20.442Z,5.40
2023-03-06T10:41:50.528Z,5.80
2023-03-06T10:44:38.370Z,5.20
2023-03-06T10:47:30.463Z,5.10
2023-03-06T10:53:05.790Z,11.50
2023-03-06T10:55:38.050Z,9.40
2023-03-06T10:58:23.284Z,6.70
2023-03-06T11:01:23.784Z,6.30
2023-03-06T11:03:54.220Z,4.80
2023-03-06T11:06:37.176Z,4.90
2023-03-06T11:09:26.453Z,5.20
2023-03-06T11:12:29.547Z,4.50
2023-03-06T11:15:15.552Z,9.80
2023-03-06T11:18:04.516Z,4.40
2023-03-06T11:20:48.648Z,4.20
2023-03-06T11:23:38.357Z,4.40
2023-03-06T11:26:16.233Z,4.80
2023-03-06T11:29:29.578Z,4.30
2023-03-06T11:32:37.072Z,5.50
2023-03-06T11:35:13.658Z,7.00
2023-03-06T11:38:04.935Z,4.50
2023-03-06T11:40:58.210Z,5.50
2023-03-06T11:44:01.767Z,5.30
2023-03-06T11:46:46.716Z,5.20
2023-03-06T11:49:39.713Z,12.80
2023-03-06T11:52:35.914Z,5.70
2023-03-06T11:55:04.719Z,5.30
2023-03-06T11:58:05.500Z,5.90
2023-03-06T12:00:53.950Z,5.70
2023-03-06T12:03:52.104Z,5.90
2023-03-06T12:06:52.130Z,5.30
2023-03-06T12:09:48.085Z,5.30
2023-03-06T12:12:40.286Z,10.10
2023-03-06T12:15:14.274Z,5.40
2023-03-06T12:18:03.631Z,5.70
2023-03-06T12:20:41.836Z,5.60
2023-03-06T12:23:35.133Z,5.60
2023-03-06T12:26:19.043Z,7.40
2023-03-06T12:29:21.362Z,8.40
2023-03-06T12:32:29.431Z,6.20
2023-03-06T12:35:38.961Z,6.20
2023-03-06T12:38:35.023Z,5.70
2023-03-06T12:41:28.787Z,5.10
2023-03-06T12:44:18.673Z,7.60
2023-03-06T12:46:54.715Z,6.90
2023-03-06T12:49:33.035Z,6.40
2023-03-06T12:52:05.104Z,5.30
2023-03-06T12:54:41.073Z,6.60
2023-03-06T12:57:13.691Z,6.70
2023-03-06T12:59:47.449Z,6.20
2023-03-06T13:02:29.084Z,7.30
2023-03-06T13:05:24.962Z,7.10
2023-03-06T13:10:35.997Z,5.60
2023-03-06T13:13:34.320Z,5.40
2023-03-06T13:16:12.400Z,5.70
2023-03-06T13:18:44.049Z,6.10
2023-03-06T13:22:03.218Z,4.90
2023-03-06T13:24:37.372Z,5.30
2023-03-06T13:27:09.049Z,7.90
2023-03-06T13:29:40.254Z,13.50
2023-03-06T13:32:14.800Z,6.30
2023-03-06T13:34:48.816Z,6.10
2023-03-06T13:37:17.158Z,5.70
2023-03-06T13:40:00.596Z,6.80
2023-03-06T13:42:34.459Z,6.70
2023-03-06T13:45:23.734Z,5.50
2023-03-06T13:48:43.832Z,7.90
2023-03-06T13:51:27.207Z,6.30
2023-03-06T13:54:24.565Z,5.70
2023-03-06T13:57:09.059Z,5.60
2023-03-06T14:00:26.657Z,5.50
2023-03-06T14:03:33.210Z,5.80
2023-03-06T14:06:02.050Z,11.60
2023-03-06T14:08:35.035Z,10.10
2023-03-06T14:11:19.515Z,7.60
2023-03-06T14:13:53.964Z,7.00
2023-03-06T14:16:40.513Z,7.60
2023-03-06T14:19:19.051Z,6.60
2023-03-06T14:21:55.899Z,6.30
2023-03-06T14:24:54.638Z,8.60
2023-03-06T14:28:09.145Z,6.40
2023-03-06T14:30:50.144Z,8.30
2023-03-06T14:33:44.706Z,5.80
2023-03-06T14:36:20.072Z,5.90
2023-03-06T14:38:54.344Z,10.10
2023-03-06T14:41:32.201Z,8.50
2023-03-06T14:44:19.269Z,5.30
2023-03-06T14:46:57.614Z,7.60
2023-03-06T14:49:26.893Z,6.70
2023-03-06T14:51:58.302Z,7.90
2023-03-06T14:54:30.068Z,9.20
2023-03-06T14:57:08.819Z,7.00
2023-03-06T14:59:45.743Z,6.80
2023-03-06T15:02:21.733Z,6.20
2023-03-06T15:05:02.914Z,6.70
2023-03-06T15:07:33.899Z,7.20
2023-03-06T15:10:07.163Z,7.20
2023-03-06T15:12:37.019Z,14.20
2023-03-06T15:15:12.034Z,8.40
2023-03-06T15:17:46.104Z,8.00
2023-03-06T15:20:43.955Z,11.90
2023-03-06T15:23:36.129Z,9.80
2023-03-06T15:26:32.804Z,7.70
2023-03-06T15:29:11.362Z,10.00
2023-03-06T15:31:42.751Z,8.20
2023-03-06T15:34:26.011Z,8.30
2023-03-06T15:36:58.064Z,7.70
2023-03-06T15:39:29.129Z,7.30
2023-03-06T15:42:20.653Z,7.90
2023-03-06T15:44:55.774Z,7.20
2023-03-06T15:49:53.427Z,7.90
2023-03-06T15:52:23.353Z,7.20
2023-03-06T15:54:51.769Z,7.40
2023-03-06T15:57:27.520Z,7.50
2023-03-06T15:59:56.728Z,8.00
2023-03-06T16:02:25.674Z,7.70
2023-03-06T16:04:54.285Z,8.50
2023-03-06T16:07:23.566Z,8.00
2023-03-06T16:09:51.910Z,7.90
2023-03-06T16:12:22.726Z,8.60
2023-03-06T16:14:51.843Z,8.20
2023-03-06T16:17:20.860Z,9.30
2023-03-06T16:19:51.440Z,11.10
2023-03-06T16:22:22.253Z,9.50
2023-03-06T16:24:51.099Z,10.90
2023-03-06T16:27:20.579Z,10.10
2023-03-06T16:29:48.824Z,8.90
2023-03-06T16:32:18.321Z,8.80
2023-03-06T16:34:46.423Z,9.60
2023-03-06T16:37:14.565Z,9.30
2023-03-06T16:39:42.720Z,9.50
2023-03-06T16:42:12.046Z,10.00
2023-03-06T16:44:40.345Z,12.60
2023-03-06T16:47:12.640Z,11.00
2023-03-06T16:49:43.399Z,12.10
2023-03-06T16:52:12.258Z,11.30
2023-03-06T16:54:42.398Z,12.10
2023-03-06T16:57:15.683Z,11.70
2023-03-06T16:59:45.361Z,12.50
2023-03-06T17:02:15.426Z,12.50
2023-03-06T17:04:43.848Z,12.90
2023-03-06T17:07:12.939Z,13.80
2023-03-06T17:09:42.938Z,12.30
2023-03-06T17:12:11.807Z,13.70
2023-03-06T17:14:39.864Z,13.20
2023-03-06T17:17:09.002Z,14.90
2023-03-06T17:19:37.366Z,12.90
2023-03-06T17:22:05.533Z,14.70
2023-03-06T17:24:35.592Z,14.00
2023-03-06T17:27:03.689Z,16.70
2023-03-06T17:29:31.874Z,15.00
2023-03-06T17:32:04.155Z,14.00
2023-03-06T17:34:32.408Z,20.70
2023-03-06T17:37:01.906Z,19.00
2023-03-06T17:39:35.504Z,13.40
2023-03-06T17:42:04.874Z,15.10
2023-03-06T17:44:34.529Z,17.50
2023-03-06T17:47:03.952Z,17.70
2023-03-06T17:49:32.412Z,22.00
2023-03-06T17:52:03.553Z,21.80
2023-03-06T17:54:33.747Z,23.40
2023-03-06T17:57:03.764Z,23.10
2023-03-06T17:59:34.346Z,21.80
2023-03-06T18:02:03.309Z,22.40
2023-03-06T18:04:32.462Z,20.60
2023-03-06T18:07:00.599Z,21.80
2023-03-06T18:09:29.606Z,22.60
2023-03-06T18:11:57.849Z,21.00
2023-03-06T18:14:26.040Z,22.70
2023-03-06T18:16:54.125Z,21.10
2023-03-06T18:19:22.223Z,20.40
2023-03-06T18:21:54.339Z,19.90
2023-03-06T18:24:22.411Z,19.10
2023-03-06T18:26:52.483Z,19.60
2023-03-06T18:29:20.462Z,20.40
2023-03-06T18:31:51.147Z,21.10
2023-03-06T18:34:22.668Z,19.10
2023-03-06T18:36:52.533Z,20.40
2023-03-06T18:39:21.560Z,20.80
2023-03-06T18:41:52.143Z,19.10
2023-03-06T18:44:20.564Z,19.10
2023-03-06T18:46:48.613Z,19.00
2023-03-06T18:49:16.920Z,19.30
2023-03-06T18:51:45.077Z,20.60
2023-03-06T18:54:13.819Z,20.30
2023-03-06T18:56:44.226Z,21.20
2023-03-06T18:59:18.205Z,21.10
2023-03-06T19:01:48.163Z,20.40
2023-03-06T19:04:16.916Z,20.90
2023-03-06T19:06:44.850Z,20.80
2023-03-06T19:09:13.137Z,20.50
2023-03-06T19:11:42.768Z,22.50
2023-03-06T19:14:10.887Z,22.40
2023-03-06T19:16:39.234Z,22.20
2023-03-06T19:19:07.565Z,21.40
2023-03-06T19:21:35.632Z,20.60
2023-03-06T19:24:06.624Z,20.80
2023-03-06T19:26:35.722Z,21.10
2023-03-06T19:29:04.442Z,20.10
2023-03-06T19:31:32.496Z,21.90
2023-03-06T19:34:02.944Z,22.10
2023-03-06T19:36:34.256Z,20.10
2023-03-06T19:39:05.419Z,20.50
2023-03-06T19:41:34.122Z,21.40
2023-03-06T19:44:03.424Z,19.20
2023-03-06T19:46:34.094Z,18.10
2023-03-06T19:49:12.045Z,17.60
2023-03-06T19:51:40.220Z,17.30
2023-03-06T19:54:12.071Z,18.10
2023-03-06T19:56:40.857Z,20.60
2023-03-06T19:59:08.867Z,22.00
2023-03-06T20:01:38.668Z,24.20
2023-03-06T20:04:06.741Z,25.40
2023-03-06T20:06:37.684Z,26.70
2023-03-06T20:09:09.414Z,24.10
2023-03-06T20:11:38.236Z,25.00
2023-03-06T20:14:08.809Z,26.90
2023-03-06T20:16:37.305Z,27.30
2023-03-06T20:19:06.503Z,26.40
2023-03-06T20:21:37.806Z,27.80
2023-03-06T20:24:08.277Z,26.40
2023-03-06T20:26:38.107Z,26.90
2023-03-06T20:29:06.481Z,25.90
2023-03-06T20:31:36.503Z,25.80
2023-03-06T20:34:05.828Z,26.50
2023-03-06T20:36:39.302Z,25.50
2023-03-06T20:39:13.488Z,25.30
2023-03-06T20:41:41.475Z,24.90
2023-03-06T20:44:13.967Z,27.00
2023-03-06T20:46:42.575Z,27.80
2023-03-06T20:49:13.303Z,26.50
2023-03-06T20:51:42.644Z,25.70
2023-03-06T20:54:13.277Z,27.40
2023-03-06T20:56:44.818Z,27.10
2023-03-06T20:59:14.523Z,27.00
2023-03-06T21:01:44.711Z,23.90
2023-03-06T21:04:14.172Z,24.50
2023-03-06T21:06:47.016Z,23.30
2023-03-06T21:09:17.430Z,21.40
2023-03-06T21:11:46.051Z,21.70
2023-03-06T21:14:14.529Z,20.60
2023-03-06T21:16:42.934Z,22.90
2023-03-06T21:19:13.362Z,20.10
2023-03-06T21:21:42.720Z,20.80
2023-03-06T21:24:11.238Z,20.10
2023-03-06T21:26:39.334Z,20.10
2023-03-06T21:29:07.621Z,22.00
2023-03-06T21:31:36.674Z,21.60
2023-03-06T21:34:06.487Z,20.40
2023-03-06T21:36:35.281Z,21.90
2023-03-06T21:39:06.693Z,21.80
2023-03-06T21:41:35.566Z,20.40
2023-03-06T21:44:06.340Z,22.30
2023-03-06T21:46:35.058Z,22.50
2023-03-06T21:49:04.745Z,23.90
2023-03-06T21:51:32.759Z,22.50
2023-03-06T21:54:02.374Z,22.00
2023-03-06T21:56:33.567Z,22.10
2023-03-06T21:59:01.968Z,21.00
2023-03-06T22:01:31.057Z,21.80
2023-03-06T22:04:00.122Z,21.70
2023-03-06T22:06:30.760Z,22.00
2023-03-06T22:09:00.428Z,22.30
2023-03-06T22:11:31.696Z,22.30
2023-03-06T22:14:00.233Z,22.30
2023-03-06T22:16:28.380Z,21.60
2023-03-06T22:18:56.878Z,20.50
2023-03-06T22:21:25.501Z,20.70
2023-03-06T22:23:57.544Z,21.50
2023-03-06T22:26:27.662Z,21.30
2023-03-06T22:28:56.523Z,21.00
2023-03-06T22:31:27.202Z,19.60
2023-03-06T22:33:57.510Z,20.60
2023-03-06T22:36:30.590Z,21.20
2023-03-06T22:39:02.651Z,17.90
2023-03-06T22:41:31.137Z,19.50
2023-03-06T22:44:01.029Z,18.70
2023-03-06T22:46:31.993Z,20.90
2023-03-06T22:49:00.881Z,18.70
2023-03-06T22:51:30.038Z,17.30
2023-03-06T22:53:58.558Z,17.00
2023-03-06T22:56:26.746Z,18.00
2023-03-06T22:58:54.998Z,16.90
2023-03-06T23:01:25.756Z,15.40
2023-03-06T23:03:59.017Z,17.40
2023-03-06T23:06:31.818Z,17.90
2023-03-06T23:09:20.700Z,19.10
2023-03-06T23:12:09.196Z,18.80
2023-03-06T23:14:55.758Z,17.90
2023-03-06T23:17:42.735Z,16.10
2023-03-06T23:20:29.257Z,17.10
2023-03-06T23:23:16.034Z,18.00
2023-03-06T23:25:44.546Z,17.00
2023-03-06T23:28:14.327Z,15.00
2023-03-06T23:30:42.377Z,15.20
2023-03-06T23:33:11.178Z,16.20
2023-03-06T23:35:39.248Z,14.40
2023-03-06T23:38:07.773Z,14.10
2023-03-06T23:40:38.675Z,13.50
2023-03-06T23:43:07.338Z,14.80
2023-03-06T23:45:35.615Z,12.90
2023-03-06T23:48:07.857Z,10.30
2023-03-06T23:50:39.793Z,10.60
2023-03-06T23:53:07.742Z,10.60
2023-03-06T23:55:36.048Z,9.20
2023-03-06T23:58:04.287Z,9.10
